createdAt,value
2022-12-29T00:00:13.844Z,100067.06
2022-12-29T00:02:42.336Z,100067.06
2022-12-29T00:05:11.054Z,100074.16
2022-12-29T00:07:39.721Z,100073.72
2022-12-29T00:10:08.584Z,100077.63
2022-12-29T00:12:55.213Z,100081.94
2022-12-29T00:15:41.941Z,100089.03
2022-12-29T00:18:10.831Z,100086.16
2022-12-29T00:20:58.507Z,100094.03
2022-12-29T00:23:45.327Z,100093.91
2022-12-29T00:26:37.000Z,100088.28
2022-12-29T00:29:23.498Z,100094.94
2022-12-29T00:32:09.974Z,100097.16
2022-12-29T00:34:56.836Z,100109.66
2022-12-29T00:37:44.977Z,100113.44
2022-12-29T00:40:31.596Z,100118.84
2022-12-29T00:43:18.241Z,100115.88
2022-12-29T00:45:46.531Z,100127.94
2022-12-29T00:48:14.809Z,100128.16
2022-12-29T00:50:43.181Z,100131.16
2022-12-29T00:53:11.471Z,100134.13
2022-12-29T00:55:40.317Z,100143.47
2022-12-29T00:58:08.723Z,100133.34
2022-12-29T01:00:37.098Z,100142.63
2022-12-29T01:03:05.642Z,100150.41
2022-12-29T01:05:33.926Z,100163.31
2022-12-29T01:08:02.214Z,100159.19
2022-12-29T01:10:30.603Z,100160.47
2022-12-29T01:12:58.899Z,100162.22
2022-12-29T01:15:27.197Z,100167.97
2022-12-29T01:17:55.552Z,100172.53
2022-12-29T01:20:23.828Z,100176.28
2022-12-29T01:22:52.177Z,100174.00
2022-12-29T01:25:20.481Z,100172.53
2022-12-29T01:27:48.758Z,100172.28
2022-12-29T01:30:17.138Z,100179.91
2022-12-29T01:32:46.702Z,100180.75
2022-12-29T01:35:15.076Z,100192.84
2022-12-29T01:37:43.574Z,100191.69
2022-12-29T01:40:13.375Z,100200.22
2022-12-29T01:42:42.503Z,100199.94
2022-12-29T01:45:15.575Z,100202.16
2022-12-29T01:48:06.014Z,100207.44
2022-12-29T01:50:39.499Z,100211.16
2022-12-29T01:53:18.437Z,100220.47
2022-12-29T01:55:52.204Z,100218.22
2022-12-29T01:58:24.762Z,100225.03
2022-12-29T02:00:53.197Z,100227.06
2022-12-29T02:03:25.876Z,100217.22
2022-12-29T02:06:13.559Z,100212.16
2022-12-29T02:08:43.609Z,100213.44
2022-12-29T02:11:12.032Z,100214.38
2022-12-29T02:13:40.362Z,100218.13
2022-12-29T02:16:20.533Z,100215.81
2022-12-29T02:19:13.905Z,100224.31
2022-12-29T02:22:02.508Z,100230.38
2022-12-29T02:24:55.621Z,100222.19
2022-12-29T02:27:56.018Z,100226.22
2022-12-29T02:31:05.517Z,100228.84
2022-12-29T02:33:48.572Z,100224.53
2022-12-29T02:36:48.991Z,100220.97
2022-12-29T02:39:55.661Z,100222.53
2022-12-29T02:42:48.714Z,100221.00
2022-12-29T02:45:34.214Z,100225.00
2022-12-29T02:48:30.970Z,100226.72
2022-12-29T02:51:11.366Z,100228.41
2022-12-29T02:53:58.565Z,100226.53
2022-12-29T02:56:26.868Z,100224.50
2022-12-29T02:58:55.153Z,100224.63
2022-12-29T03:02:20.232Z,100221.03
2022-12-29T03:05:17.712Z,100219.00
2022-12-29T03:08:07.575Z,100217.44
2022-12-29T03:11:33.706Z,100217.88
2022-12-29T03:14:37.855Z,100217.84
2022-12-29T03:17:13.125Z,100213.66
2022-12-29T03:19:51.244Z,100225.25
2022-12-29T03:22:30.042Z,100215.25
2022-12-29T03:25:38.974Z,100212.91
2022-12-29T03:28:24.711Z,100216.88
2022-12-29T03:30:53.111Z,100206.13
2022-12-29T03:33:26.230Z,100205.78
2022-12-29T03:36:01.076Z,100205.91
2022-12-29T03:38:46.423Z,100202.78
2022-12-29T03:41:19.445Z,100200.84
2022-12-29T03:43:49.252Z,100199.72
2022-12-29T03:46:17.626Z,100196.75
2022-12-29T03:48:46.757Z,100193.59
2022-12-29T03:51:15.047Z,100190.41
2022-12-29T03:53:43.465Z,100188.47
2022-12-29T03:56:11.765Z,100178.97
2022-12-29T03:58:40.205Z,100185.44
2022-12-29T04:01:08.655Z,100175.09
2022-12-29T04:03:37.082Z,100172.13
2022-12-29T04:06:05.532Z,100165.66
2022-12-29T04:08:33.838Z,100167.06
2022-12-29T04:11:02.195Z,100167.91
2022-12-29T04:13:30.529Z,100158.53
2022-12-29T04:15:58.951Z,100149.75
2022-12-29T04:18:27.294Z,100144.22
2022-12-29T04:21:07.700Z,100143.38
2022-12-29T04:23:39.080Z,100147.31
2022-12-29T04:26:11.648Z,100144.09
2022-12-29T04:28:41.168Z,100131.44
2022-12-29T04:31:09.726Z,100129.50
2022-12-29T04:33:38.048Z,100120.41
2022-12-29T04:36:06.680Z,100123.59
2022-12-29T04:38:35.940Z,100103.28
2022-12-29T04:41:04.959Z,100089.38
2022-12-29T04:43:33.328Z,100087.41
2022-12-29T04:46:02.553Z,100078.56
2022-12-29T04:48:30.919Z,100071.75
2022-12-29T04:50:59.242Z,100054.22
2022-12-29T04:53:27.551Z,100057.09
2022-12-29T04:55:56.012Z,100046.44
2022-12-29T04:58:24.536Z,100041.94
2022-12-29T05:00:53.826Z,100044.03
2022-12-29T05:03:22.252Z,100037.69
2022-12-29T05:05:50.610Z,100037.00
2022-12-29T05:08:24.667Z,100025.09
2022-12-29T05:10:56.050Z,100021.28
2022-12-29T05:13:24.344Z,100020.84
2022-12-29T05:15:54.725Z,100012.19
2022-12-29T05:18:23.334Z,100000.28
2022-12-29T05:20:51.989Z,99996.47
2022-12-29T05:23:20.322Z,99989.09
2022-12-29T05:25:48.638Z,99974.56
2022-12-29T05:28:16.968Z,99976.09
2022-12-29T05:30:49.885Z,99973.81
2022-12-29T05:33:19.480Z,99967.47
2022-12-29T05:35:48.116Z,99954.47
2022-12-29T05:38:16.422Z,99959.09
2022-12-29T05:40:46.876Z,99944.56
2022-12-29T05:43:15.214Z,99937.97
2022-12-29T05:45:43.681Z,99932.88
2022-12-29T05:48:11.966Z,99934.44
2022-12-29T05:50:40.272Z,99925.78
2022-12-29T05:53:08.611Z,99919.44
2022-12-29T05:55:37.106Z,99910.78
2022-12-29T05:58:05.423Z,99893.72
2022-12-29T06:00:33.869Z,99900.91
2022-12-29T06:03:02.388Z,99885.84
2022-12-29T06:08:12.325Z,99884.59
2022-12-29T06:10:40.677Z,99880.50
2022-12-29T06:13:09.194Z,99880.00
2022-12-29T06:15:38.102Z,99872.59
2022-12-29T06:18:06.420Z,99879.25
2022-12-29T06:20:34.782Z,99881.53
2022-12-29T06:23:03.078Z,99867.28
2022-12-29T06:25:34.128Z,99861.16
2022-12-29T06:28:02.978Z,99860.13
2022-12-29T06:30:31.536Z,99856.31
2022-12-29T06:33:01.307Z,99859.63
2022-12-29T06:35:29.907Z,99852.22
2022-12-29T06:37:58.211Z,99842.00
2022-12-29T06:40:26.525Z,99834.34
2022-12-29T06:42:54.816Z,99829.25
2022-12-29T06:45:23.239Z,99823.88
2022-12-29T06:47:51.530Z,99815.97
2022-12-29T06:50:19.850Z,99809.38
2022-12-29T06:52:48.218Z,99816.78
2022-12-29T06:55:16.625Z,99809.38
2022-12-29T06:57:44.935Z,99803.47
2022-12-29T07:00:16.921Z,99806.53
2022-12-29T07:02:49.398Z,99792.50
2022-12-29T07:05:17.866Z,99797.09
2022-12-29T07:07:46.294Z,99797.34
2022-12-29T07:13:09.740Z,99783.53
2022-12-29T07:15:39.258Z,99777.41
2022-12-29T07:18:07.613Z,99777.16
2022-12-29T07:20:35.977Z,99784.56
2022-12-29T07:23:04.672Z,99775.34
2022-12-29T07:25:33.357Z,99772.03
2022-12-29T07:28:01.659Z,99757.97
2022-12-29T07:30:29.978Z,99769.75
2022-12-29T07:32:58.827Z,99765.16
2022-12-29T07:35:27.287Z,99756.72
2022-12-29T07:37:55.565Z,99753.63
2022-12-29T07:40:23.899Z,99759.25
2022-12-29T07:42:52.205Z,99740.63
2022-12-29T07:45:20.466Z,99744.22
2022-12-29T07:47:52.059Z,99746.75
2022-12-29T07:50:20.616Z,99738.31
2022-12-29T07:52:49.841Z,99726.56
2022-12-29T07:55:18.926Z,99737.28
2022-12-29T07:57:47.277Z,99719.13
2022-12-29T08:00:16.228Z,99726.28
2022-12-29T08:02:44.625Z,99712.75
2022-12-29T08:05:13.241Z,99716.31
2022-12-29T08:07:41.610Z,99714.28
2022-12-29T08:10:10.057Z,99709.94
2022-12-29T08:12:40.633Z,99706.88
2022-12-29T08:15:10.480Z,99694.59
2022-12-29T08:17:39.368Z,99708.66
2022-12-29T08:20:08.482Z,99695.63
2022-12-29T08:22:36.820Z,99680.28
2022-12-29T08:25:05.944Z,99699.44
2022-12-29T08:27:34.451Z,99695.09
2022-12-29T08:30:02.737Z,99690.75
2022-12-29T08:32:31.167Z,99695.63
2022-12-29T08:34:59.500Z,99689.22
2022-12-29T08:37:31.124Z,99699.72
2022-12-29T08:40:00.814Z,99693.06
2022-12-29T08:42:32.881Z,99693.59
2022-12-29T08:45:01.719Z,99688.50
2022-12-29T08:47:30.219Z,99690.28
2022-12-29T08:49:58.558Z,99687.47
2022-12-29T08:52:26.846Z,99684.66
2022-12-29T08:54:55.154Z,99683.13
2022-12-29T08:57:24.931Z,99679.28
2022-12-29T08:59:53.281Z,99687.47
2022-12-29T09:02:24.596Z,99683.13
2022-12-29T09:04:53.537Z,99682.88
2022-12-29T09:07:21.991Z,99681.34
2022-12-29T09:09:50.315Z,99688.78
2022-12-29T09:12:19.796Z,99685.72
2022-12-29T09:14:51.158Z,99691.84
2022-12-29T09:17:37.795Z,99690.84
2022-12-29T09:20:06.827Z,99693.91
2022-12-29T09:22:35.178Z,99705.41
2022-12-29T09:25:03.552Z,99704.88
2022-12-29T09:27:32.191Z,99704.88
2022-12-29T09:30:00.806Z,99706.16
2022-12-29T09:32:33.593Z,99730.44
2022-12-29T09:35:02.786Z,99726.59
2022-12-29T09:37:31.329Z,99724.06
2022-12-29T09:39:59.643Z,99734.78
2022-12-29T09:45:39.412Z,99746.50
2022-12-29T09:48:26.725Z,99750.31
2022-12-29T09:51:00.295Z,99748.03
2022-12-29T09:53:33.208Z,99760.28
2022-12-29T09:56:03.991Z,99763.84
2022-12-29T09:59:01.930Z,99765.38
2022-12-29T10:01:36.599Z,99772.50
2022-12-29T10:04:07.032Z,99770.41
2022-12-29T10:07:27.942Z,99778.31
2022-12-29T10:09:53.378Z,99778.81
2022-12-29T10:12:37.160Z,99785.44
2022-12-29T10:15:16.180Z,99786.16
2022-12-29T10:17:47.512Z,99786.16
2022-12-29T10:20:28.393Z,99792.00
2022-12-29T10:23:20.804Z,99796.84
2022-12-29T10:25:49.568Z,99797.31
2022-12-29T10:28:38.294Z,99799.31
2022-12-29T10:31:16.063Z,99803.63
2022-12-29T10:33:45.385Z,99808.97
2022-12-29T10:36:45.572Z,99827.28
2022-12-29T10:39:28.768Z,99827.72
2022-12-29T10:42:32.554Z,99823.34
2022-12-29T10:45:02.278Z,99834.53
2022-12-29T10:47:36.476Z,99840.59
2022-12-29T10:50:06.369Z,99833.69
2022-12-29T10:52:37.226Z,99840.03
2022-12-29T10:55:14.782Z,99843.53
2022-12-29T10:57:47.495Z,99847.06
2022-12-29T11:00:22.459Z,99849.81
2022-12-29T11:03:15.503Z,99848.50
2022-12-29T11:05:54.707Z,99856.88
2022-12-29T11:08:27.764Z,99859.88
2022-12-29T11:11:07.771Z,99864.16
2022-12-29T11:13:49.252Z,99862.06
2022-12-29T11:16:32.590Z,99872.97
2022-12-29T11:19:01.954Z,99869.91
2022-12-29T11:21:35.010Z,99886.44
2022-12-29T11:24:06.723Z,99888.47
2022-12-29T11:26:35.977Z,99894.56
2022-12-29T11:29:10.379Z,99890.22
2022-12-29T11:31:54.469Z,99897.88
2022-12-29T11:34:37.302Z,99901.94
2022-12-29T11:37:14.535Z,99902.41
2022-12-29T11:39:49.171Z,99910.06
2022-12-29T11:42:20.956Z,99904.19
2022-12-29T11:44:51.456Z,99916.66
2022-12-29T11:47:31.336Z,99920.22
2022-12-29T11:50:06.689Z,99925.81
2022-12-29T11:52:41.430Z,99929.06
2022-12-29T11:55:27.613Z,99933.91
2022-12-29T11:57:59.632Z,99938.72
2022-12-29T12:00:34.306Z,99939.50
2022-12-29T12:03:06.507Z,99943.56
2022-12-29T12:05:57.877Z,99957.56
2022-12-29T12:08:38.081Z,99957.56
2022-12-29T12:11:09.366Z,99962.88
2022-12-29T12:13:59.875Z,99962.13
2022-12-29T12:16:36.139Z,99969.47
2022-12-29T12:19:29.462Z,99969.19
2022-12-29T12:22:15.742Z,99973.25
2022-12-29T12:25:16.098Z,99986.00
2022-12-29T12:28:07.388Z,99977.31
2022-12-29T12:30:43.550Z,99989.56
2022-12-29T12:33:26.856Z,100000.00
2022-12-29T12:36:12.172Z,100002.78
2022-12-29T12:39:07.332Z,100009.94
2022-12-29T12:41:54.904Z,100010.69
2022-12-29T12:44:43.215Z,100013.00
2022-12-29T12:47:44.246Z,100015.03
2022-12-29T12:50:35.354Z,100031.06
2022-12-29T12:53:41.409Z,100031.56
2022-12-29T12:56:21.494Z,100039.94
2022-12-29T12:59:19.380Z,100036.88
2022-12-29T13:02:20.173Z,100049.31
2022-12-29T13:04:54.398Z,100047.00
2022-12-29T13:07:25.640Z,100046.25
2022-12-29T13:10:05.768Z,100049.53
2022-12-29T13:12:48.505Z,100059.19
2022-12-29T13:15:28.996Z,100052.06
2022-12-29T13:18:16.145Z,100064.50
2022-12-29T13:21:00.023Z,100067.78
2022-12-29T13:23:48.253Z,100073.13
2022-12-29T13:26:16.526Z,100078.72
2022-12-29T13:29:03.379Z,100082.00
2022-12-29T13:31:44.287Z,100078.16
2022-12-29T13:34:46.109Z,100092.16
2022-12-29T13:37:27.159Z,100091.38
2022-12-29T13:40:19.248Z,100101.00
2022-12-29T13:42:49.309Z,100102.75
2022-12-29T13:45:22.365Z,100109.09
2022-12-29T13:47:55.309Z,100116.44
2022-12-29T13:50:27.850Z,100114.91
2022-12-29T13:53:27.704Z,100118.97
2022-12-29T13:56:07.108Z,100122.25
2022-12-29T13:58:58.490Z,100129.59
2022-12-29T14:02:05.881Z,100130.84
2022-12-29T14:04:37.718Z,100133.38
2022-12-29T14:07:18.914Z,100131.06
2022-12-29T14:09:53.521Z,100139.94
2022-12-29T14:12:35.448Z,100146.00
2022-12-29T14:15:12.988Z,100134.53
2022-12-29T14:17:43.093Z,100144.66
2022-12-29T14:20:25.307Z,100149.97
2022-12-29T14:23:12.987Z,100151.66
2022-12-29T14:26:00.417Z,100162.56
2022-12-29T14:28:34.501Z,100161.50
2022-12-29T14:31:09.822Z,100158.41
2022-12-29T14:33:38.133Z,100159.38
2022-12-29T14:36:36.379Z,100156.31
2022-12-29T14:39:06.443Z,100156.50
2022-12-29T14:41:41.132Z,100163.81
2022-12-29T14:44:09.378Z,100167.09
2022-12-29T14:47:00.704Z,100163.72
2022-12-29T14:49:35.275Z,100169.50
2022-12-29T14:52:26.194Z,100168.44
2022-12-29T14:55:18.723Z,100170.16
2022-12-29T14:57:52.056Z,100177.78
2022-12-29T15:00:22.441Z,100183.84
2022-12-29T15:03:07.632Z,100183.56
2022-12-29T15:05:51.017Z,100187.63
2022-12-29T15:08:23.562Z,100185.78
2022-12-29T15:11:03.813Z,100194.94
2022-12-29T15:13:39.380Z,100182.69
2022-12-29T15:16:38.036Z,100181.63
2022-12-29T15:19:07.186Z,100180.75
2022-12-29T15:21:38.428Z,100180.16
2022-12-29T15:24:07.066Z,100182.06
2022-12-29T15:26:44.431Z,100187.84
2022-12-29T15:29:40.482Z,100185.72
2022-12-29T15:32:17.921Z,100184.78
2022-12-29T15:34:48.765Z,100181.91
2022-12-29T15:37:23.775Z,100176.16
2022-12-29T15:39:53.286Z,100178.06
2022-12-29T15:42:53.433Z,100172.38
2022-12-29T15:45:22.326Z,100182.19
2022-12-29T15:47:55.863Z,100180.06
2022-12-29T15:50:24.120Z,100185.50
2022-12-29T15:52:53.196Z,100179.00
2022-12-29T15:55:29.367Z,100186.03
2022-12-29T15:58:03.199Z,100182.34
2022-12-29T16:00:37.539Z,100183.75
2022-12-29T16:03:08.644Z,100178.31
2022-12-29T16:05:41.800Z,100184.09
2022-12-29T16:08:35.712Z,100185.50
2022-12-29T16:11:09.476Z,100175.75
2022-12-29T16:13:47.919Z,100185.53
2022-12-29T16:16:24.286Z,100179.34
2022-12-29T16:18:57.755Z,100178.72
2022-12-29T16:21:37.753Z,100172.22
2022-12-29T16:24:15.591Z,100177.97
2022-12-29T16:26:51.815Z,100171.03
2022-12-29T16:29:23.724Z,100178.03
2022-12-29T16:32:07.287Z,100175.56
2022-12-29T16:34:47.142Z,100172.91
2022-12-29T16:37:38.091Z,100170.78
2022-12-29T16:40:24.228Z,100165.06
2022-12-29T16:42:56.501Z,100164.44
2022-12-29T16:45:24.741Z,100170.19
2022-12-29T16:48:15.784Z,100160.75
2022-12-29T16:50:45.938Z,100158.56
2022-12-29T16:53:26.047Z,100153.94
2022-12-29T16:55:55.769Z,100150.53
2022-12-29T16:58:29.512Z,100156.28
2022-12-29T17:00:59.835Z,100157.66
2022-12-29T17:06:27.279Z,100158.44
2022-12-29T17:08:55.659Z,100151.13
2022-12-29T17:12:00.321Z,100162.44
2022-12-29T17:14:47.592Z,100156.72
2022-12-29T17:17:42.009Z,100171.28
2022-12-29T17:20:26.963Z,100169.44
2022-12-29T17:22:55.996Z,100160.75
2022-12-29T17:25:36.352Z,100167.09
2022-12-29T17:28:24.672Z,100169.88
2022-12-29T17:30:56.313Z,100165.88
2022-12-29T17:33:24.658Z,100165.41
2022-12-29T17:35:55.669Z,100172.53
2022-12-29T17:38:32.891Z,100167.72
2022-12-29T17:41:01.673Z,100165.72
2022-12-29T17:43:36.366Z,100175.31
2022-12-29T17:46:08.916Z,100185.22
2022-12-29T17:48:53.620Z,100174.53
2022-12-29T17:51:23.456Z,100169.44
2022-12-29T17:53:53.102Z,100171.91
2022-12-29T17:56:21.652Z,100172.38
2022-12-29T17:58:51.665Z,100165.72
2022-12-29T18:01:22.823Z,100159.81
2022-12-29T18:03:51.307Z,100167.06
2022-12-29T18:06:19.615Z,100168.78
2022-12-29T18:08:48.388Z,100166.94
2022-12-29T18:11:28.028Z,100160.44
2022-12-29T18:13:56.413Z,100155.78
2022-12-29T18:16:25.052Z,100151.59
2022-12-29T18:18:53.363Z,100145.06
2022-12-29T18:21:23.590Z,100146.00
2022-12-29T18:23:52.417Z,100148.63
2022-12-29T18:26:29.515Z,100152.78
2022-12-29T18:28:59.370Z,100143.03
2022-12-29T18:31:31.509Z,100147.97
2022-12-29T18:34:02.402Z,100148.09
2022-12-29T18:36:30.819Z,100147.00
2022-12-29T18:38:59.161Z,100143.28
2022-12-29T18:41:31.969Z,100147.75
2022-12-29T18:44:00.837Z,100144.66
2022-12-29T18:46:29.838Z,100148.06
2022-12-29T18:48:58.258Z,100143.41
2022-12-29T18:51:27.383Z,100142.63
2022-12-29T18:53:55.991Z,100148.66
2022-12-29T18:56:25.517Z,100140.78
2022-12-29T18:58:54.479Z,100139.22
2022-12-29T19:01:28.673Z,100140.44
2022-12-29T19:03:57.232Z,100129.31
2022-12-29T19:06:25.676Z,100125.75
2022-12-29T19:08:54.164Z,100121.75
2022-12-29T19:11:22.513Z,100120.19
2022-12-29T19:13:50.823Z,100119.41
2022-12-29T19:16:22.475Z,100118.97
2022-12-29T19:19:07.810Z,100105.50
2022-12-29T19:21:37.798Z,100110.75
2022-12-29T19:24:06.535Z,100103.63
2022-12-29T19:26:37.502Z,100111.66
2022-12-29T19:29:14.732Z,100107.50
2022-12-29T19:31:43.639Z,100103.63
2022-12-29T19:34:16.039Z,100113.34
2022-12-29T19:36:45.755Z,100117.03
2022-12-29T19:39:14.350Z,100114.41
2022-12-29T19:41:42.670Z,100107.41
2022-12-29T19:44:11.099Z,100113.13
2022-12-29T19:46:39.466Z,100110.47
2022-12-29T19:49:08.334Z,100106.59
2022-12-29T19:51:36.733Z,100105.97
2022-12-29T19:54:05.144Z,100100.56
2022-12-29T19:56:33.458Z,100106.53
2022-12-29T19:59:01.734Z,100107.44
2022-12-29T20:01:30.174Z,100109.91
2022-12-29T20:03:58.761Z,100105.25
2022-12-29T20:06:27.012Z,100102.16
2022-12-29T20:08:56.500Z,100102.28
2022-12-29T20:11:24.892Z,100103.97
2022-12-29T20:13:53.284Z,100106.44
2022-12-29T20:16:22.128Z,100105.78
2022-12-29T20:18:50.652Z,100101.59
2022-12-29T20:21:22.662Z,100102.50
2022-12-29T20:23:53.121Z,100103.06
2022-12-29T20:26:25.487Z,100104.44
2022-12-29T20:28:54.583Z,100103.03
2022-12-29T20:31:33.029Z,100111.50
2022-12-29T20:34:01.972Z,100106.06
2022-12-29T20:36:33.244Z,100101.75
2022-12-29T20:39:05.020Z,100104.66
2022-12-29T20:41:33.462Z,100113.88
2022-12-29T20:44:01.900Z,100105.66
2022-12-29T20:46:35.325Z,100109.66
2022-12-29T20:49:09.619Z,100106.25
2022-12-29T20:52:04.502Z,100112.69
2022-12-29T20:54:26.253Z,100123.94
2022-12-29T20:56:54.552Z,100119.28
2022-12-29T20:59:27.849Z,100124.53
2022-12-29T21:01:57.639Z,100121.09
2022-12-29T21:04:26.506Z,100117.66
2022-12-29T21:06:55.104Z,100123.28
2022-12-29T21:09:23.874Z,100128.97
2022-12-29T21:11:52.204Z,100128.75
2022-12-29T21:14:20.501Z,100125.34
2022-12-29T21:16:48.873Z,100123.91
2022-12-29T21:19:17.309Z,100128.81
2022-12-29T21:21:45.601Z,100134.47
2022-12-29T21:24:13.934Z,100133.34
2022-12-29T21:26:42.248Z,100132.69
2022-12-29T21:29:10.574Z,100132.03
2022-12-29T21:31:39.028Z,100134.94
2022-12-29T21:34:08.248Z,100139.06
2022-12-29T21:36:36.822Z,100140.72
2022-12-29T21:39:05.566Z,100135.75
2022-12-29T21:41:33.982Z,100141.69
2022-12-29T21:44:20.480Z,100145.38
2022-12-29T21:46:51.616Z,100151.03
2022-12-29T21:49:19.921Z,100145.59
2022-12-29T21:51:50.942Z,100152.03
2022-12-29T21:54:44.171Z,100149.38
2022-12-29T21:57:19.464Z,100150.72
2022-12-29T22:00:24.845Z,100152.81
2022-12-29T22:03:16.656Z,100162.00
2022-12-29T22:06:08.994Z,100154.69
2022-12-29T22:08:55.880Z,100166.97
2022-12-29T22:11:42.653Z,100170.97
2022-12-29T22:14:11.916Z,100168.28
2022-12-29T22:16:40.434Z,100172.72
2022-12-29T22:19:09.706Z,100179.16
2022-12-29T22:21:38.017Z,100178.81
2022-12-29T22:24:06.593Z,100187.22
2022-12-29T22:26:34.979Z,100194.41
2022-12-29T22:29:03.260Z,100191.41
2022-12-29T22:31:33.542Z,100197.81
2022-12-29T22:34:03.972Z,100190.84
2022-12-29T22:36:33.794Z,100192.06
2022-12-29T22:39:02.152Z,100195.25
2022-12-29T22:41:30.520Z,100196.16
2022-12-29T22:43:58.962Z,100207.66
2022-12-29T22:46:27.568Z,100200.22
2022-12-29T22:48:58.499Z,100199.91
2022-12-29T22:51:28.060Z,100206.28
2022-12-29T22:53:56.384Z,100207.16
2022-12-29T22:56:24.734Z,100210.81
2022-12-29T22:58:53.642Z,100209.69
2022-12-29T23:01:24.873Z,100217.22
2022-12-29T23:03:53.256Z,100227.19
2022-12-29T23:06:21.621Z,100227.19
2022-12-29T23:08:50.021Z,100233.59
2022-12-29T23:11:18.604Z,100238.81
2022-12-29T23:13:47.135Z,100236.91
2022-12-29T23:16:16.651Z,100236.56
2022-12-29T23:18:46.804Z,100250.84
2022-12-29T23:21:17.417Z,100248.91
2022-12-29T23:23:57.853Z,100247.03
2022-12-29T23:26:28.864Z,100248.22
2022-12-29T23:29:00.184Z,100254.22
2022-12-29T23:31:29.954Z,100251.88
2022-12-29T23:33:59.584Z,100257.06
2022-12-29T23:36:28.396Z,100259.06
2022-12-29T23:38:57.312Z,100263.81
2022-12-29T23:41:26.003Z,100272.91
2022-12-29T23:43:54.516Z,100267.81
2022-12-29T23:46:25.987Z,100278.88
2022-12-29T23:48:54.483Z,100284.41
2022-12-29T23:51:23.517Z,100289.16
2022-12-29T23:53:51.891Z,100293.16
2022-12-29T23:56:23.526Z,100295.56
2022-12-29T23:58:52.639Z,100303.09
